Latest Weather Observations for Wyndham Airport

IDW60801

Issued at 7:02 am WST Friday 19 December 2014 (issued every 30 minutes, with the page automatically refreshed every 10 minutes)

About weather observations | Map of weather stations | Latest weather observations for WA | Other Formats
Station Details ID: 001006 Name: WYNDHAM AERO Lat: -15.51 Lon: 128.15 Height: 3.8 m
Data from the previous 72 hours. | See also: Recent months for locations in Western Australia
Date/Time
WST
Temp
°C
App
Temp
°C
Dew
Point
Rel
Hum
%
Delta-T
°C
Wind Press
QNH
hPa
Press
MSL
hPa
Rain
since 9 am
mm
Dir
 
Spd
km/h
Gust
km/h
Spd
kts
Gust
kts
19/07:00am 30.6 34.7 23.3 65 5.0 ESE 7 9 4 5 1009.9 1009.9 0.0
19/06:30am 30.0 35.4 23.2 67 4.7 CALM 0 0 0 0 1009.7 1009.7 0.0
19/06:00am 29.4 34.8 23.3 69 4.2 CALM 0 0 0 0 1009.3 1009.3 0.0
19/05:30am 28.8 33.8 23.9 75 3.4 NNW 4 6 2 3 1009.0 1009.0 0.0
19/05:00am 28.4 33.2 23.5 75 3.4 NW 4 7 2 4 1008.5 1008.5 0.0
19/04:30am 29.0 33.3 23.7 73 3.7 SW 7 9 4 5 1008.3 1008.3 0.0
19/04:00am 29.0 32.8 23.4 72 3.9 WSW 9 9 5 5 1008.1 1008.1 0.0
19/03:30am 28.9 32.4 23.6 73 3.6 WSW 11 13 6 7 1008.1 1008.1 0.0
19/03:00am 28.9 32.0 23.6 73 3.7 SW 13 15 7 8 1008.1 1008.1 0.0
19/02:30am 29.1 31.2 23.8 73 3.7 WSW 19 24 10 13 1008.1 1008.1 0.0
19/02:00am 29.2 31.5 24.1 74 3.5 WSW 19 26 10 14 1008.3 1008.3 0.0
19/01:30am 29.0 32.9 24.3 76 3.3 WSW 11 19 6 10 1008.3 1008.3 0.0
19/01:00am 28.7 31.6 24.5 78 2.9 SW 17 20 9 11 1008.5 1008.5 0.0
19/12:30am 28.9 31.6 24.2 76 3.3 SW 17 20 9 11 1009.0 1009.0 0.0
19/12:00am 28.8 31.5 24.1 76 3.3 SSW 17 20 9 11 1009.4 1009.4 0.0
 
Date/Time
WST
Temp
°C
App
Temp
°C
Dew
Point
Rel
Hum
%
Delta-T
°C
Wind Press
QNH
hPa
Press
MSL
hPa
Rain
since 9 am
mm
Dir
 
Spd
km/h
Gust
km/h
Spd
kts
Gust
kts
18/11:30pm 29.1 31.7 24.0 74 3.5 SSW 17 17 9 9 1009.6 1009.6 0.0
18/11:00pm 29.5 34.9 23.2 69 4.3 CALM 0 0 0 0 1009.8 1009.8 0.0
18/10:30pm 29.3 33.4 23.0 69 4.3 NNW 6 7 3 4 1010.2 1010.2 0.0
18/10:00pm 29.3 32.9 23.0 69 4.3 NW 9 11 5 6 1009.8 1009.8 0.0
18/09:30pm 28.9 33.0 23.3 72 3.8 NW 7 9 4 5 1009.0 1009.0 0.0
18/09:00pm 28.3 34.0 23.7 76 3.2 CALM 0 6 0 3 1009.0 1009.0 0.0
18/08:30pm 28.3 30.8 23.2 74 3.5 WNW 15 20 8 11 1009.3 1009.3 0.0
18/08:00pm 28.2 30.7 23.1 74 3.5 W 15 20 8 11 1009.1 1009.1 0.0
18/07:30pm 27.3 31.2 22.5 75 3.2 E 6 13 3 7 1009.7 1009.7 0.0
18/07:00pm 26.3 26.6 21.5 75 3.2 E 22 32 12 17 1008.4 1008.4 0.0
18/06:37pm 27.5 25.3 21.5 70 4.0 ESE 35 54 19 29 1008.2 1008.2 0.0
18/06:30pm 27.9 24.7 21.0 66 4.6 ESE 39 54 21 29 1007.8 1007.8 0.0
18/06:00pm 30.3 29.4 23.2 65 4.9 ESE 33 44 18 24 1007.8 1007.8 0.0
18/05:36pm 32.8 30.9 21.3 50 7.8 ESE 33 61 18 33 1006.7 1006.7 0.0
18/05:33pm 33.7 32.6 21.8 49 8.1 ESE 30 50 16 27 1006.5 1006.5 0.0
18/05:30pm 34.1 33.5 21.9 49 8.3 ESE 28 43 15 23 1006.3 1006.3 0.0
18/05:22pm 35.9 37.0 21.3 42 9.9 ENE 17 41 9 22 1006.1 1006.1 0.0
18/05:00pm 36.4 37.8 21.0 40 10.5 NE 15 22 8 12 1005.1 1005.1 0.0
18/04:30pm 35.9 35.7 21.3 42 9.9 ENE 24 39 13 21 1004.8 1004.8 0.0
18/04:00pm 39.9 41.3 19.6 31 13.7 E 11 24 6 13 1004.4 1004.4 0.0
18/03:30pm 39.7 41.0 19.4 30 13.6 E 11 17 6 9 1004.2 1004.2 0.0
18/03:00pm 39.7 40.9 18.3 28 14.2 SSE 9 20 5 11 1003.9 1003.9 0.0
18/02:30pm 39.5 40.3 18.1 28 14.1 E 11 17 6 9 1004.0 1004.0 0.0
18/02:00pm 39.3 40.1 19.0 30 13.5 SE 13 20 7 11 1004.3 1004.3 0.0
18/01:30pm 39.6 41.0 20.3 32 13.1 ESE 13 20 7 11 1004.8 1004.8 0.0
18/01:00pm 39.9 40.9 21.0 33 12.9 ESE 17 26 9 14 1005.4 1005.4 0.0
18/12:30pm 39.0 40.6 22.1 37 11.7 ESE 17 24 9 13 1006.0 1006.0 0.0
18/12:00pm 38.1 39.2 21.3 37 11.5 ESE 17 30 9 16 1006.6 1006.6 0.0
18/11:30am 38.3 40.6 20.6 35 12.0 WNW 9 17 5 9 1007.2 1007.2 0.0
18/11:00am 36.9 40.0 21.1 40 10.8 S 6 15 3 8 1007.9 1007.9 0.0
18/10:30am 36.9 39.6 22.2 42 10.1 SW 11 19 6 10 1008.3 1008.3 0.0
18/10:00am 36.6 38.9 22.0 43 10.0 WSW 13 19 7 10 1008.5 1008.5 0.0
18/09:30am 35.4 39.3 23.0 48 8.6 WNW 7 15 4 8 1008.7 1008.7 0.0
18/09:00am 33.9 38.2 23.6 55 7.2 WNW 7 11 4 6 1009.1 1009.1 3.4
18/08:30am 33.6 38.3 23.3 55 7.1 WSW 4 9 2 5 1009.3 1009.3 3.4
18/08:00am 32.8 37.0 23.4 57 6.5 WSW 7 11 4 6 1009.0 1009.0 3.4
18/07:30am 32.4 38.0 23.6 59 6.1 CALM 0 0 0 0 1008.8 1008.8 3.4
18/07:00am 32.0 37.7 23.8 62 5.7 CALM 0 0 0 0 1008.7 1008.7 3.4
18/06:30am 30.8 37.2 24.9 71 4.1 CALM 0 0 0 0 1008.2 1008.2 3.4
18/06:00am 29.4 36.5 26.0 82 2.4 CALM 0 0 0 0 1007.8 1007.8 3.4
18/05:30am 28.0 35.2 26.2 90 1.3 CALM 0 0 0 0 1007.4 1007.4 3.4
18/05:00am 27.3 34.3 25.9 92 1.0 CALM 0 0 0 0 1006.9 1006.9 3.4
18/04:30am 27.0 33.5 25.0 89 1.4 CALM 0 0 0 0 1006.6 1006.6 3.4
18/04:00am 27.3 33.8 25.1 88 1.5 CALM 0 0 0 0 1006.1 1006.1 3.4
18/03:30am 26.9 33.2 24.7 88 1.5 CALM 0 0 0 0 1006.2 1006.2 3.4
18/03:00am 27.4 33.7 24.8 86 1.8 CALM 0 0 0 0 1005.8 1005.8 3.4
18/02:30am 27.1 33.2 24.4 85 1.9 CALM 0 0 0 0 1005.8 1005.8 3.4
18/02:00am 27.5 34.0 25.1 87 1.7 CALM 0 0 0 0 1005.6 1005.6 3.4
18/01:30am 27.3 32.2 24.7 86 1.8 E 7 7 4 4 1005.7 1005.7 3.4
18/01:00am 27.4 32.7 25.0 87 1.7 SSE 6 7 3 4 1005.5 1005.5 3.4
18/12:30am 27.5 32.8 25.3 88 1.5 NNE 7 11 4 6 1005.4 1005.4 3.4
18/12:00am 27.3 32.2 24.7 86 1.8 ESE 7 7 4 4 1005.4 1005.4 3.4
 
Date/Time
WST
Temp
°C
App
Temp
°C
Dew
Point
Rel
Hum
%
Delta-T
°C
Wind Press
QNH
hPa
Press
MSL
hPa
Rain
since 9 am
mm
Dir
 
Spd
km/h
Gust
km/h
Spd
kts
Gust
kts
17/11:30pm 27.2 32.2 24.8 87 1.7 E 7 11 4 6 1005.6 1005.6 3.4
17/11:00pm 27.5 31.9 25.1 87 1.7 E 11 15 6 8 1006.1 1006.1 3.4
17/10:30pm 27.6 31.0 24.6 84 2.1 SE 15 17 8 9 1006.4 1006.4 3.4
17/10:00pm 27.4 31.8 25.6 90 1.3 ESE 13 17 7 9 1006.8 1006.8 3.4
17/09:30pm 27.4 32.5 25.6 90 1.3 ESE 9 11 5 6 1007.1 1007.1 3.4
17/09:00pm 27.4 32.3 25.2 88 1.5 ESE 9 11 5 6 1007.1 1007.1 3.4
17/08:30pm 27.8 32.0 25.4 87 1.7 ESE 13 15 7 8 1007.0 1007.0 3.4
17/08:00pm 28.0 31.9 25.4 86 1.8 ESE 15 19 8 10 1007.0 1007.0 3.4
17/07:30pm 28.8 35.3 25.0 80 2.7 CALM 0 0 0 0 1006.6 1006.6 3.4
17/07:00pm 28.8 35.1 24.8 79 2.8 CALM 0 0 0 0 1006.1 1006.1 3.4
17/06:30pm 29.2 34.0 24.5 76 3.3 SSW 7 11 4 6 1005.9 1005.9 3.4
17/06:00pm 29.1 32.1 24.6 76 3.1 SSW 17 20 9 11 1005.8 1005.8 3.4
17/05:30pm 29.6 33.6 23.8 71 4.0 SW 9 13 5 7 1005.3 1005.3 3.4
17/05:00pm 29.8 31.0 22.5 65 5.0 N 20 26 11 14 1005.3 1005.3 3.4
17/04:30pm 28.4 33.6 24.8 81 2.5 NNE 6 11 3 6 1004.5 1004.5 3.4
17/04:00pm 28.4 30.9 24.4 79 2.8 NW 19 26 10 14 1003.4 1003.4 3.2
17/03:30pm 28.3 31.0 24.1 78 2.9 WNW 17 30 9 16 1003.4 1003.4 3.0
17/03:00pm 27.7 31.2 23.5 78 2.9 N 11 13 6 7 1004.4 1004.4 2.8
17/02:30pm 26.8 29.0 23.9 84 2.0 ENE 19 22 10 12 1004.0 1004.0 2.8
17/02:00pm 26.2 25.8 24.1 88 1.4 ESE 33 43 18 23 1005.1 1005.1 2.8
17/01:37pm 26.3 25.4 23.8 86 1.7 ESE 35 50 19 27 1006.3 1006.3 2.8
17/01:30pm 27.1 27.0 22.9 78 2.9 E 28 41 15 22 1005.8 1005.8 2.8
17/01:00pm 28.4 26.7 22.4 70 4.1 NE 35 50 19 27 1004.4 1004.4 2.8
17/12:57pm 28.1 26.5 22.6 72 3.7 NE 35 50 19 27 1004.5 1004.5 2.8
17/12:30pm 30.6 30.8 23.5 66 4.9 ENE 28 43 15 23 1004.0 1004.0 2.6
17/12:10pm 32.0 33.2 22.1 55 6.7 NNW 19 41 10 22 1003.5 1003.5 0.2
17/12:00pm 37.0 38.4 20.3 37 11.3 WSW 13 17 7 9 1003.5 1003.5 0.0
17/11:30am 35.1 34.6 22.1 47 8.9 WSW 28 39 15 21 1004.2 1004.2 0.0
17/11:24am 35.8 36.5 21.6 43 9.7 SW 20 39 11 21 1004.5 1004.5 0.0
17/11:00am 38.3 40.0 21.0 36 11.8 S 13 22 7 12 1004.9 1004.9 0.0
17/10:30am 38.4 41.3 22.4 39 11.1 WNW 11 15 6 8 1005.7 1005.7 0.0
17/10:00am 38.4 42.2 22.4 39 11.1 NW 6 17 3 9 1006.2 1006.2 0.0
17/09:30am 38.3 42.5 23.5 42 10.4 NNW 7 13 4 7 1006.3 1006.3 0.0
17/09:00am 37.3 40.6 22.6 42 10.2 ESE 9 15 5 8 1006.7 1006.7 0.0
17/08:30am 36.4 39.5 22.9 45 9.4 SSE 11 17 6 9 1006.8 1006.8 0.0
17/08:00am 35.4 39.4 23.7 50 8.2 ESE 9 15 5 8 1006.7 1006.7 0.0
17/07:30am 34.1 37.6 23.5 54 7.4 SE 11 15 6 8 1006.9 1006.9 0.0
17/07:00am 33.2 37.1 22.9 54 7.1 S 7 11 4 6 1006.6 1006.6 0.0
17/06:30am 32.9 37.1 23.2 56 6.7 NE 6 7 3 4 1006.3 1006.3 0.0
17/06:00am 31.6 37.0 25.2 69 4.5 ESE 6 7 3 4 1006.0 1006.0 0.0
17/05:30am 30.5 36.3 25.8 76 3.3 ENE 6 9 3 5 1005.6 1005.6 0.0
17/05:00am 29.2 34.3 25.6 81 2.5 E 9 9 5 5 1004.8 1004.8 0.0
17/04:30am 28.7 33.8 24.9 80 2.7 E 7 9 4 5 1004.5 1004.5 0.0
17/04:00am 29.5 34.9 25.5 79 2.8 E 7 9 4 5 1004.2 1004.2 0.0
17/03:30am 29.4 35.2 24.5 75 3.4 SE 2 7 1 4 1003.9 1003.9 0.0
17/03:00am 30.1 35.8 23.8 69 4.4 CALM 0 0 0 0 1003.8 1003.8 0.0
17/02:30am 30.4 36.1 23.8 68 4.6 CALM 0 0 0 0 1003.9 1003.9 0.0
17/02:00am 30.3 36.0 23.7 68 4.6 CALM 0 0 0 0 1003.8 1003.8 0.0
17/01:30am 30.1 35.7 23.5 67 4.6 CALM 0 0 0 0 1003.8 1003.8 0.0
17/01:00am 30.8 35.4 23.2 64 5.2 NNW 4 6 2 3 1003.9 1003.9 0.0
17/12:30am 31.4 36.0 23.2 61 5.6 W 4 6 2 3 1004.2 1004.2 0.0
17/12:00am 31.8 35.8 23.1 60 6.0 WNW 7 7 4 4 1004.8 1004.8 0.0
 
Date/Time
WST
Temp
°C
App
Temp
°C
Dew
Point
Rel
Hum
%
Delta-T
°C
Wind Press
QNH
hPa
Press
MSL
hPa
Rain
since 9 am
mm
Dir
 
Spd
km/h
Gust
km/h
Spd
kts
Gust
kts
16/11:30pm 32.0 36.2 23.5 60 5.9 W 7 9 4 5 1005.1 1005.1 0.0
16/11:00pm 32.0 35.8 24.1 63 5.5 WSW 11 11 6 6 1005.6 1005.6 0.0
16/10:30pm 32.8 36.0 23.7 58 6.3 NW 13 17 7 9 1005.9 1005.9 0.0
16/10:00pm 32.7 35.8 24.2 61 6.0 NNW 15 20 8 11 1005.8 1005.8 0.0
16/09:30pm 32.9 35.9 24.6 61 5.8 N 17 22 9 12 1005.9 1005.9 0.0
16/09:00pm 32.6 36.7 25.2 65 5.2 N 13 17 7 9 1005.8 1005.8 0.0
16/08:30pm 32.7 36.2 25.5 66 5.1 N 17 20 9 11 1006.0 1006.0 0.0
16/08:00pm 32.4 36.5 25.7 68 4.8 N 15 20 8 11 1005.7 1005.7 0.0
16/07:30pm 32.7 35.7 24.7 62 5.6 N 17 24 9 13 1005.5 1005.5 0.0
16/07:00pm 32.8 36.6 25.3 64 5.3 N 15 28 8 15 1004.9 1004.9 0.0
16/06:30pm 33.5 34.1 24.1 58 6.6 N 28 37 15 20 1003.8 1003.8 0.0
16/06:00pm 34.3 34.6 24.2 55 7.1 N 30 41 16 22 1003.3 1003.3 0.0
16/05:30pm 35.8 36.2 23.1 48 8.8 N 26 35 14 19 1003.1 1003.1 0.0
16/05:00pm 37.2 37.0 22.1 41 10.4 N 26 35 14 19 1002.2 1002.2 0.0
16/04:30pm 38.6 38.1 19.9 33 12.6 N 22 30 12 16 1001.8 1001.8 0.0
16/04:00pm 40.6 41.0 19.1 28 14.4 ENE 15 26 8 14 1001.3 1001.3 0.0
16/03:30pm 39.8 39.3 20.0 31 13.4 SE 22 30 12 16 1001.5 1001.5 0.0
16/03:00pm 39.9 39.8 19.6 31 13.7 ESE 19 30 10 16 1001.5 1001.5 0.0
16/02:30pm 39.6 39.9 18.8 30 13.8 N 15 22 8 12 1002.4 1002.4 0.0
16/02:00pm 40.9 40.8 18.8 27 14.8 NNW 17 28 9 15 1002.5 1002.5 0.0
16/01:30pm 40.2 39.4 17.0 25 15.1 NNE 17 24 9 13 1003.1 1003.1 0.0
16/01:00pm 41.3 41.7 19.1 27 14.9 NNW 15 20 8 11 1003.4 1003.4 0.0
16/12:30pm 40.1 40.7 18.7 29 14.2 N 13 20 7 11 1004.1 1004.1 0.0
16/12:00pm 39.8 41.7 18.9 29 13.9 WSW 7 15 4 8 1004.8 1004.8 0.0
16/11:30am 39.3 41.5 20.5 33 12.8 SW 9 15 5 8 1005.6 1005.6 0.0
16/11:00am 38.5 40.9 20.8 36 12.1 SW 9 17 5 9 1006.0 1006.0 0.0
16/10:30am 37.5 40.0 20.3 36 11.6 WSW 7 13 4 7 1006.6 1006.6 0.0
16/10:00am 36.8 40.7 22.9 44 9.7 SSW 7 15 4 8 1007.0 1007.0 0.0
16/09:30am 36.3 41.7 23.2 47 9.1 CALM 0 0 0 0 1007.4 1007.4 0.0
16/09:00am 35.5 39.5 23.1 48 8.6 WSW 7 13 4 7 1007.7 1007.7 14.2
16/08:30am 35.0 40.3 24.3 54 7.5 SW 4 7 2 4 1007.8 1007.8 14.2
16/08:00am 34.0 39.8 24.0 56 7.0 CALM 0 0 0 0 1007.9 1007.9 14.2
16/07:30am 33.3 39.4 24.5 60 6.2 CALM 0 0 0 0 1007.7 1007.7 14.2

Other Formats:

Comma delimited format used in spreadsheet applications
http://www.bom.gov.au/fwo/IDW60801/IDW60801.95214.axf

JavaScript Object Notation format (JSON) in row-major order
http://www.bom.gov.au/fwo/IDW60801/IDW60801.95214.json